createdAt,value
2022-10-23T00:01:24.616Z,97451.50
2022-10-23T00:03:54.358Z,97460.31
2022-10-23T00:06:24.792Z,97455.97
2022-10-23T00:08:53.419Z,97458.78
2022-10-23T00:11:24.509Z,97464.09
2022-10-23T00:13:55.448Z,97469.53
2022-10-23T00:16:24.132Z,97481.00
2022-10-23T00:18:52.669Z,97484.63
2022-10-23T00:21:21.842Z,97484.63
2022-10-23T00:23:52.238Z,97490.06
2022-10-23T00:26:21.109Z,97481.28
2022-10-23T00:28:52.305Z,97472.50
2022-10-23T00:31:22.279Z,97480.44
2022-10-23T00:33:51.236Z,97474.47
2022-10-23T00:36:21.611Z,97469.16
2022-10-23T00:38:52.218Z,97469.16
2022-10-23T00:41:22.783Z,97470.13
2022-10-23T00:44:01.605Z,97473.78
2022-10-23T00:46:30.490Z,97468.47
2022-10-23T00:48:59.685Z,97480.88
2022-10-23T00:51:31.236Z,97476.56
2022-10-23T00:54:22.806Z,97466.94
2022-10-23T00:56:50.742Z,97462.63
2022-10-23T00:59:19.234Z,97473.22
2022-10-23T01:01:48.440Z,97464.44
2022-10-23T01:04:17.096Z,97462.63
2022-10-23T01:06:51.953Z,97466.56
2022-10-23T01:09:27.957Z,97461.94
2022-10-23T01:11:59.386Z,97471.72
2022-10-23T01:14:33.148Z,97462.91
2022-10-23T01:17:05.220Z,97461.25
2022-10-23T01:19:48.330Z,97468.38
2022-10-23T01:22:29.646Z,97452.59
2022-10-23T01:25:03.119Z,97443.13
2022-10-23T01:27:34.520Z,97439.50
2022-10-23T01:30:06.993Z,97433.50
2022-10-23T01:32:48.034Z,97443.28
2022-10-23T01:35:21.015Z,97445.09
2022-10-23T01:37:59.315Z,97444.25
2022-10-23T01:40:34.108Z,97440.78
2022-10-23T01:43:08.026Z,97439.94
2022-10-23T01:45:41.301Z,97435.63
2022-10-23T01:48:15.145Z,97430.31
2022-10-23T01:50:45.493Z,97426.16
2022-10-23T01:53:14.141Z,97434.09
2022-10-23T01:55:43.400Z,97434.25
2022-10-23T01:58:21.135Z,97431.59
2022-10-23T02:00:52.048Z,97430.91
2022-10-23T02:03:21.500Z,97429.25
2022-10-23T02:05:50.081Z,97424.78
2022-10-23T02:08:18.652Z,97419.63
2022-10-23T02:10:52.891Z,97411.84
2022-10-23T02:13:27.422Z,97424.09
2022-10-23T02:16:01.429Z,97418.97
2022-10-23T02:18:35.624Z,97418.97
2022-10-23T02:21:08.346Z,97423.44
2022-10-23T02:23:41.563Z,97418.28
2022-10-23T02:26:13.763Z,97422.59
2022-10-23T02:28:47.131Z,97418.44
2022-10-23T02:31:18.330Z,97403.38
2022-10-23T02:33:47.562Z,97408.66
2022-10-23T02:36:16.708Z,97410.63
2022-10-23T02:38:46.348Z,97414.94
2022-10-23T02:41:22.301Z,97409.78
2022-10-23T02:44:03.780Z,97409.78
2022-10-23T02:46:38.124Z,97412.44
2022-10-23T02:49:12.663Z,97411.59
2022-10-23T02:51:50.232Z,97402.97
2022-10-23T02:54:33.108Z,97387.06
2022-10-23T02:57:05.114Z,97396.84
2022-10-23T02:59:38.139Z,97388.06
2022-10-23T03:02:10.540Z,97395.16
2022-10-23T03:04:39.820Z,97388.19
2022-10-23T03:07:11.938Z,97384.72
2022-10-23T03:09:40.619Z,97389.19
2022-10-23T03:12:09.221Z,97391.00
2022-10-23T03:14:39.924Z,97401.59
2022-10-23T03:17:10.469Z,97395.47
2022-10-23T03:19:39.115Z,97406.22
2022-10-23T03:22:07.640Z,97403.56
2022-10-23T03:24:36.193Z,97401.06
2022-10-23T03:27:05.029Z,97406.47
2022-10-23T03:29:34.096Z,97401.16
2022-10-23T03:32:04.101Z,97398.66
2022-10-23T03:34:32.848Z,97398.66
2022-10-23T03:37:01.776Z,97402.31
2022-10-23T03:39:30.477Z,97394.34
2022-10-23T03:41:58.962Z,97391.69
2022-10-23T03:44:27.555Z,97394.50
2022-10-23T03:46:56.344Z,97392.69
2022-10-23T03:49:26.236Z,97398.97
2022-10-23T03:51:54.923Z,97388.38
2022-10-23T03:54:24.634Z,97382.22
2022-10-23T03:56:56.550Z,97377.91
2022-10-23T03:59:26.221Z,97376.25
2022-10-23T04:01:55.471Z,97375.56
2022-10-23T04:04:27.379Z,97375.56
2022-10-23T04:06:55.879Z,97381.69
2022-10-23T04:09:24.615Z,97379.19
2022-10-23T04:11:53.234Z,97386.16
2022-10-23T04:14:21.735Z,97385.31
2022-10-23T04:16:50.219Z,97383.66
2022-10-23T04:19:18.746Z,97383.66
2022-10-23T04:21:49.350Z,97390.78
2022-10-23T04:24:17.891Z,97380.31
2022-10-23T04:26:46.431Z,97389.09
2022-10-23T04:29:14.912Z,97393.56
2022-10-23T04:31:43.422Z,97396.50
2022-10-23T04:34:11.942Z,97392.88
2022-10-23T04:36:40.733Z,97376.97
2022-10-23T04:39:12.934Z,97381.44
2022-10-23T04:41:41.765Z,97370.84
2022-10-23T04:44:10.497Z,97378.09
2022-10-23T04:46:40.371Z,97370.16
2022-10-23T04:49:09.161Z,97366.53
2022-10-23T04:51:56.398Z,97372.81
2022-10-23T04:54:44.826Z,97382.56
2022-10-23T04:57:31.276Z,97370.16
2022-10-23T05:00:02.569Z,97376.44
2022-10-23T05:02:37.559Z,97365.84
2022-10-23T05:05:07.587Z,97380.91
2022-10-23T05:07:36.868Z,97382.88
2022-10-23T05:10:30.666Z,97384.69
2022-10-23T05:13:14.013Z,97384.53
2022-10-23T05:18:15.159Z,97385.66
2022-10-23T05:20:45.841Z,97384.81
2022-10-23T05:23:16.263Z,97385.66
2022-10-23T05:25:55.225Z,97380.38
2022-10-23T05:28:24.027Z,97380.38
2022-10-23T05:30:53.003Z,97369.06
2022-10-23T05:33:26.142Z,97374.38
2022-10-23T05:35:54.781Z,97371.72
2022-10-23T05:38:24.432Z,97374.53
2022-10-23T05:40:53.227Z,97379.69
2022-10-23T05:43:26.939Z,97375.34
2022-10-23T05:46:09.927Z,97377.16
2022-10-23T05:49:12.516Z,97372.03
2022-10-23T05:51:55.271Z,97373.69
2022-10-23T05:54:52.003Z,97377.31
2022-10-23T05:57:39.500Z,97377.31
2022-10-23T06:00:14.170Z,97372.84
2022-10-23T06:02:42.808Z,97374.66
2022-10-23T06:05:50.541Z,97364.22
2022-10-23T06:08:24.300Z,97367.56
2022-10-23T06:10:53.056Z,97376.47
2022-10-23T06:13:21.610Z,97387.06
2022-10-23T06:15:51.586Z,97387.22
2022-10-23T06:18:22.428Z,97381.94
2022-10-23T06:20:57.837Z,97381.94
2022-10-23T06:23:28.348Z,97386.38
2022-10-23T06:26:25.938Z,97387.22
2022-10-23T06:29:08.810Z,97375.94
2022-10-23T06:31:39.293Z,97367.00
2022-10-23T06:34:07.952Z,97355.59
2022-10-23T06:36:37.953Z,97357.41
2022-10-23T06:39:29.787Z,97367.00
2022-10-23T06:42:15.141Z,97368.00
2022-10-23T06:44:55.730Z,97361.72
2022-10-23T06:47:45.458Z,97367.00
2022-10-23T06:50:32.706Z,97358.22
2022-10-23T06:53:07.254Z,97366.19
2022-10-23T06:55:40.435Z,97369.66
2022-10-23T06:58:11.396Z,97360.06
2022-10-23T07:00:55.413Z,97375.78
2022-10-23T07:03:25.415Z,97368.00
2022-10-23T07:05:54.469Z,97364.38
2022-10-23T07:08:23.902Z,97360.88
2022-10-23T07:10:54.824Z,97369.66
2022-10-23T07:13:25.026Z,97359.22
2022-10-23T07:16:00.795Z,97359.22
2022-10-23T07:18:31.188Z,97365.34
2022-10-23T07:21:18.865Z,97370.66
2022-10-23T07:23:47.711Z,97373.28
2022-10-23T07:26:17.737Z,97370.66
2022-10-23T07:28:47.347Z,97364.38
2022-10-23T07:31:25.669Z,97360.88
2022-10-23T07:34:16.587Z,97363.25
2022-10-23T07:36:47.666Z,97350.00
2022-10-23T07:39:16.202Z,97358.63
2022-10-23T07:41:52.179Z,97354.16
2022-10-23T07:44:23.075Z,97349.56
2022-10-23T07:46:54.155Z,97349.41
2022-10-23T07:49:24.463Z,97343.13
2022-10-23T07:51:54.133Z,97348.44
2022-10-23T07:54:23.048Z,97352.75
2022-10-23T07:57:18.463Z,97352.59
2022-10-23T07:59:50.575Z,97354.13
2022-10-23T08:02:23.044Z,97359.28
2022-10-23T08:04:53.088Z,97359.28
2022-10-23T08:07:29.318Z,97353.00
2022-10-23T08:10:01.731Z,97351.16
2022-10-23T08:12:31.568Z,97360.50
2022-10-23T08:15:00.145Z,97361.19
2022-10-23T08:17:36.826Z,97352.09
2022-10-23T08:20:15.378Z,97344.84
2022-10-23T08:22:46.061Z,97353.78
2022-10-23T08:25:24.917Z,97348.16
2022-10-23T08:27:54.940Z,97356.13
2022-10-23T08:30:23.796Z,97359.75
2022-10-23T08:32:53.917Z,97361.41
2022-10-23T08:35:23.820Z,97359.75
2022-10-23T08:37:52.541Z,97364.06
2022-10-23T08:40:23.998Z,97351.66
2022-10-23T08:43:16.594Z,97350.72
2022-10-23T08:46:04.184Z,97350.72
2022-10-23T08:48:58.033Z,97348.88
2022-10-23T08:51:52.173Z,97345.25
2022-10-23T08:54:23.258Z,97348.59
2022-10-23T08:56:54.700Z,97343.13
2022-10-23T08:59:28.181Z,97341.19
2022-10-23T09:02:00.141Z,97338.38
2022-10-23T09:04:29.450Z,97334.75
2022-10-23T09:07:06.490Z,97339.06
2022-10-23T09:09:48.249Z,97335.44
2022-10-23T09:12:18.061Z,97337.09
2022-10-23T09:14:58.654Z,97338.75
2022-10-23T09:17:29.025Z,97334.97
2022-10-23T09:20:03.121Z,97323.53
2022-10-23T09:22:33.285Z,97322.84
2022-10-23T09:25:01.773Z,97326.34
2022-10-23T09:27:30.343Z,97324.53
2022-10-23T09:29:59.409Z,97317.22
2022-10-23T09:32:35.506Z,97312.59
2022-10-23T09:35:04.848Z,97301.03
2022-10-23T09:37:35.910Z,97298.22
2022-10-23T09:40:20.609Z,97300.72
2022-10-23T09:42:54.428Z,97309.19
2022-10-23T09:45:25.068Z,97300.25
2022-10-23T09:48:12.372Z,97292.84
2022-10-23T09:50:48.487Z,97296.84
2022-10-23T09:53:23.107Z,97296.69
2022-10-23T09:55:53.608Z,97286.78
2022-10-23T09:58:28.737Z,97292.59
2022-10-23T10:00:58.006Z,97287.00
2022-10-23T10:03:51.534Z,97284.19
2022-10-23T10:06:25.839Z,97283.06
2022-10-23T10:08:57.317Z,97289.19
2022-10-23T10:11:31.372Z,97287.22
2022-10-23T10:14:06.818Z,97288.41
2022-10-23T10:16:44.335Z,97275.16
2022-10-23T10:19:22.850Z,97276.53
2022-10-23T10:21:56.246Z,97285.16
2022-10-23T10:24:31.727Z,97282.97
2022-10-23T10:27:07.339Z,97281.44
2022-10-23T10:29:49.496Z,97277.97
2022-10-23T10:32:27.350Z,97284.94
2022-10-23T10:35:00.096Z,97286.91
2022-10-23T10:37:38.364Z,97292.75
2022-10-23T10:40:15.390Z,97280.84
2022-10-23T10:42:58.732Z,97278.72
2022-10-23T10:45:34.234Z,97265.97
2022-10-23T10:48:26.029Z,97260.34
2022-10-23T10:51:18.096Z,97263.38
2022-10-23T10:53:59.250Z,97258.06
2022-10-23T10:56:31.575Z,97252.28
2022-10-23T10:59:03.018Z,97251.00
2022-10-23T11:01:38.764Z,97239.06
2022-10-23T11:04:15.766Z,97242.22
2022-10-23T11:06:46.706Z,97237.59
2022-10-23T11:09:21.035Z,97235.63
2022-10-23T11:11:51.829Z,97236.31
2022-10-23T11:14:23.492Z,97220.06
2022-10-23T11:16:53.245Z,97208.28
2022-10-23T11:19:24.600Z,97195.53
2022-10-23T11:21:59.434Z,97193.56
2022-10-23T11:24:50.794Z,97195.88
2022-10-23T11:27:32.865Z,97186.78
2022-10-23T11:30:18.747Z,97196.25
2022-10-23T11:33:18.184Z,97191.75
2022-10-23T11:35:57.213Z,97183.81
2022-10-23T11:38:28.229Z,97175.00
2022-10-23T11:40:58.537Z,97171.34
2022-10-23T11:43:29.845Z,97167.72
2022-10-23T11:45:59.024Z,97166.72
2022-10-23T11:48:38.420Z,97168.22
2022-10-23T11:51:07.631Z,97166.22
2022-10-23T11:53:41.346Z,97157.28
2022-10-23T11:56:28.128Z,97157.94
2022-10-23T11:59:00.159Z,97145.50
2022-10-23T12:01:37.135Z,97150.81
2022-10-23T12:04:18.856Z,97138.53
2022-10-23T12:06:49.482Z,97136.03
2022-10-23T12:09:27.934Z,97144.00
2022-10-23T12:12:18.454Z,97144.16
2022-10-23T12:14:50.261Z,97139.84
2022-10-23T12:17:30.532Z,97137.19
2022-10-23T12:20:19.436Z,97135.34
2022-10-23T12:22:55.956Z,97138.00
2022-10-23T12:25:27.455Z,97129.06
2022-10-23T12:28:03.557Z,97123.06
2022-10-23T12:30:41.192Z,97115.94
2022-10-23T12:33:20.200Z,97112.28
2022-10-23T12:36:24.106Z,97100.84
2022-10-23T12:38:54.730Z,97098.19
2022-10-23T12:41:26.257Z,97091.88
2022-10-23T12:43:56.426Z,97098.84
2022-10-23T12:46:39.179Z,97091.06
2022-10-23T12:49:16.223Z,97092.56
2022-10-23T12:51:44.888Z,97091.72
2022-10-23T12:54:18.392Z,97084.75
2022-10-23T12:56:47.711Z,97083.75
2022-10-23T12:59:18.289Z,97075.78
2022-10-23T13:01:52.611Z,97067.00
2022-10-23T13:04:29.756Z,97072.13
2022-10-23T13:07:00.350Z,97073.81
2022-10-23T13:09:32.221Z,97063.34
2022-10-23T13:12:35.159Z,97063.19
2022-10-23T13:15:17.167Z,97066.66
2022-10-23T13:18:01.509Z,97059.69
2022-10-23T13:20:31.704Z,97062.19
2022-10-23T13:23:03.345Z,97066.66
2022-10-23T13:25:33.873Z,97068.47
2022-10-23T13:28:24.931Z,97060.34
2022-10-23T13:31:09.206Z,97062.19
2022-10-23T13:33:40.433Z,97059.38
2022-10-23T13:36:22.845Z,97061.19
2022-10-23T13:39:01.845Z,97055.03
2022-10-23T13:41:35.148Z,97053.22
2022-10-23T13:44:03.853Z,97057.69
2022-10-23T13:46:32.464Z,97047.06
2022-10-23T13:49:02.783Z,97049.56
2022-10-23T13:51:35.055Z,97052.22
2022-10-23T13:54:06.323Z,97055.72
2022-10-23T13:56:35.364Z,97045.91
2022-10-23T13:59:03.907Z,97047.59
2022-10-23T14:01:35.923Z,97045.59
2022-10-23T14:04:07.035Z,97050.91
2022-10-23T14:06:37.501Z,97061.53
2022-10-23T14:09:07.404Z,97049.56
2022-10-23T14:11:36.171Z,97046.59
2022-10-23T14:14:05.395Z,97053.22
2022-10-23T14:16:34.022Z,97045.75
2022-10-23T14:19:02.612Z,97043.94
2022-10-23T14:21:32.651Z,97055.91
2022-10-23T14:24:01.311Z,97046.94
2022-10-23T14:26:30.474Z,97051.09
2022-10-23T14:29:02.430Z,97052.06
2022-10-23T14:31:35.772Z,97044.09
2022-10-23T14:34:04.270Z,97044.94
2022-10-23T14:36:43.290Z,97040.63
2022-10-23T14:39:18.626Z,97039.63
2022-10-23T14:41:47.113Z,97034.31
2022-10-23T14:44:15.588Z,97036.13
2022-10-23T14:46:44.097Z,97028.16
2022-10-23T14:49:12.649Z,97028.16
2022-10-23T14:51:42.521Z,97022.03
2022-10-23T14:54:11.092Z,97014.06
2022-10-23T14:56:40.793Z,97007.75
2022-10-23T14:59:10.727Z,97022.03
2022-10-23T15:01:43.795Z,97016.72
2022-10-23T15:04:17.228Z,97017.53
2022-10-23T15:06:47.761Z,97013.06
2022-10-23T15:09:16.437Z,97016.53
2022-10-23T15:11:44.874Z,97020.19
2022-10-23T15:14:13.812Z,97021.03
2022-10-23T15:16:42.716Z,97024.69
2022-10-23T15:19:15.271Z,97022.84
2022-10-23T15:21:49.339Z,97024.69
2022-10-23T15:24:18.243Z,97020.38
2022-10-23T15:26:46.803Z,97020.38
2022-10-23T15:29:15.851Z,97017.72
2022-10-23T15:31:47.280Z,97016.03
2022-10-23T15:34:18.084Z,97012.56
2022-10-23T15:36:48.488Z,97011.72
2022-10-23T15:39:19.188Z,97015.38
2022-10-23T15:41:48.394Z,97017.03
2022-10-23T15:44:19.630Z,97015.38
2022-10-23T15:46:48.352Z,97003.25
2022-10-23T15:49:16.989Z,97005.09
2022-10-23T15:51:46.091Z,97005.91
2022-10-23T15:54:18.960Z,96999.78
2022-10-23T15:56:48.959Z,96990.97
2022-10-23T15:59:18.066Z,96989.31
2022-10-23T16:01:46.741Z,96982.34
2022-10-23T16:04:16.190Z,96978.03
2022-10-23T16:06:44.946Z,96988.66
2022-10-23T16:09:13.685Z,96988.50
2022-10-23T16:11:44.437Z,96983.19
2022-10-23T16:14:14.216Z,96985.84
2022-10-23T16:16:42.715Z,96985.84
2022-10-23T16:19:11.521Z,96982.50
2022-10-23T16:21:40.285Z,96987.81
2022-10-23T16:24:10.141Z,96987.00
2022-10-23T16:26:39.500Z,96986.00
2022-10-23T16:29:10.941Z,96988.81
2022-10-23T16:31:39.612Z,96989.81
2022-10-23T16:34:08.145Z,96994.31
2022-10-23T16:36:39.212Z,96982.00
2022-10-23T16:39:26.242Z,96975.88
2022-10-23T16:42:13.398Z,96978.53
2022-10-23T16:45:11.974Z,96983.00
2022-10-23T16:47:40.524Z,96984.84
2022-10-23T16:50:09.385Z,96982.19
2022-10-23T16:52:37.995Z,96983.19
2022-10-23T16:55:07.315Z,96984.00
2022-10-23T16:57:36.087Z,96982.34
2022-10-23T17:00:06.344Z,96984.19
2022-10-23T17:02:36.353Z,96994.63
2022-10-23T17:05:05.470Z,96995.63
2022-10-23T17:07:34.147Z,96989.50
2022-10-23T17:10:02.796Z,96986.00
2022-10-23T17:12:31.446Z,96992.16
2022-10-23T17:15:00.659Z,96992.31
2022-10-23T17:17:29.393Z,96997.63
2022-10-23T17:19:59.388Z,96974.53
2022-10-23T17:22:28.131Z,96980.84
2022-10-23T17:24:56.742Z,96981.84
2022-10-23T17:27:25.238Z,96989.00
2022-10-23T17:29:53.815Z,96990.81
2022-10-23T17:34:56.270Z,97004.09
2022-10-23T17:37:26.159Z,96995.28
2022-10-23T17:39:54.746Z,97002.44
2022-10-23T17:42:23.307Z,97002.44
2022-10-23T17:44:51.804Z,97014.88
2022-10-23T17:47:20.279Z,97022.03
2022-10-23T17:49:48.765Z,97021.19
2022-10-23T17:52:17.395Z,97038.13
2022-10-23T17:54:47.389Z,97034.78
2022-10-23T17:57:15.940Z,97049.91
2022-10-23T17:59:44.557Z,97057.88
2022-10-23T18:02:14.052Z,97071.31
2022-10-23T18:04:42.666Z,97067.00
2022-10-23T18:07:11.179Z,97026.16
2022-10-23T18:09:40.212Z,97053.88
2022-10-23T18:12:10.186Z,97047.56
2022-10-23T18:14:38.701Z,97030.81
2022-10-23T18:17:07.279Z,97034.28
2022-10-23T18:19:36.534Z,97017.53
2022-10-23T18:22:05.205Z,97008.75
2022-10-23T18:24:33.778Z,97007.91
2022-10-23T18:27:02.366Z,97018.69
2022-10-23T18:29:32.407Z,97000.09
2022-10-23T18:32:01.056Z,96989.47
2022-10-23T18:34:29.630Z,96996.63
2022-10-23T18:36:58.427Z,96990.66
2022-10-23T18:39:27.237Z,96985.16
2022-10-23T18:41:57.527Z,96977.22
2022-10-23T18:44:29.112Z,96984.34
2022-10-23T18:47:00.110Z,96967.56
2022-10-23T18:49:29.126Z,96973.88
2022-10-23T18:51:58.318Z,96965.91
2022-10-23T18:54:26.816Z,96963.44
2022-10-23T18:56:55.386Z,96956.28
2022-10-23T18:59:24.225Z,96951.97
2022-10-23T19:01:53.306Z,96972.38
2022-10-23T19:04:23.311Z,96962.75
2022-10-23T19:06:52.245Z,96947.84
2022-10-23T19:09:21.199Z,96950.31
2022-10-23T19:11:51.037Z,96957.63
2022-10-23T19:14:19.705Z,96955.13
2022-10-23T19:16:58.082Z,96956.97
2022-10-23T19:19:29.923Z,96962.44
2022-10-23T19:21:58.761Z,96965.91
2022-10-23T19:24:29.930Z,96959.78
2022-10-23T19:26:59.512Z,96965.25
2022-10-23T19:29:28.479Z,96953.81
2022-10-23T19:31:57.393Z,96958.28
2022-10-23T19:34:27.821Z,96986.50
2022-10-23T19:36:56.585Z,96985.50
2022-10-23T19:39:26.001Z,96976.69
2022-10-23T19:41:55.064Z,96977.69
2022-10-23T19:44:23.769Z,96983.16
2022-10-23T19:46:52.350Z,97010.53
2022-10-23T19:49:21.070Z,97003.41
2022-10-23T19:51:51.676Z,97010.72
2022-10-23T19:54:20.872Z,97013.38
2022-10-23T19:56:49.652Z,97000.25
2022-10-23T19:59:18.782Z,97016.19
2022-10-23T20:01:49.013Z,97010.88
2022-10-23T20:04:18.556Z,97020.66
2022-10-23T20:06:48.155Z,97009.38
2022-10-23T20:09:18.220Z,97026.13
2022-10-23T20:11:49.230Z,97017.34
2022-10-23T20:14:18.843Z,97022.66
2022-10-23T20:16:52.153Z,97024.63
2022-10-23T20:19:23.451Z,97031.59
2022-10-23T20:21:52.011Z,97021.16
2022-10-23T20:24:22.799Z,97029.94
2022-10-23T20:26:54.880Z,97028.94
2022-10-23T20:29:24.700Z,97047.69
2022-10-23T20:31:53.300Z,97052.16
2022-10-23T20:34:21.866Z,97071.91
2022-10-23T20:36:53.070Z,97071.75
2022-10-23T20:39:25.565Z,97075.38
2022-10-23T20:41:55.614Z,97067.44
2022-10-23T20:44:24.822Z,97062.28
2022-10-23T20:46:53.785Z,97072.06
2022-10-23T20:49:23.221Z,97072.91
2022-10-23T20:51:54.994Z,97076.53
2022-10-23T20:54:28.747Z,97077.53
2022-10-23T20:56:58.807Z,97085.50
2022-10-23T20:59:27.296Z,97076.69
2022-10-23T21:01:57.368Z,97079.34
2022-10-23T21:04:27.547Z,97094.56
2022-10-23T21:07:12.823Z,97106.84
2022-10-23T21:09:42.771Z,97122.78
2022-10-23T21:12:11.268Z,97138.69
2022-10-23T21:14:39.910Z,97137.03
2022-10-23T21:17:11.250Z,97141.34
2022-10-23T21:19:40.605Z,97152.97
2022-10-23T21:22:09.296Z,97160.28
2022-10-23T21:24:41.967Z,97170.56
2022-10-23T21:27:10.908Z,97164.56
2022-10-23T21:29:40.052Z,97154.97
2022-10-23T21:32:09.119Z,97146.19
2022-10-23T21:34:38.168Z,97145.16
2022-10-23T21:37:13.109Z,97133.06
2022-10-23T21:39:44.491Z,97117.00
2022-10-23T21:42:14.015Z,97124.94
2022-10-23T21:44:42.691Z,97105.53
2022-10-23T21:47:11.664Z,97108.34
2022-10-23T21:49:40.243Z,97113.66
2022-10-23T21:52:08.763Z,97128.91
2022-10-23T21:54:37.467Z,97127.09
2022-10-23T21:57:13.821Z,97125.44
2022-10-23T21:59:42.357Z,97130.75
2022-10-23T22:02:11.349Z,97143.84
2022-10-23T22:04:40.528Z,97159.78
2022-10-23T22:07:10.943Z,97163.56
2022-10-23T22:09:39.812Z,97164.56
2022-10-23T22:12:10.876Z,97168.88
2022-10-23T22:14:40.156Z,97173.34
2022-10-23T22:17:08.755Z,97178.81
2022-10-23T22:19:37.343Z,97189.28
2022-10-23T22:22:05.956Z,97187.47
2022-10-23T22:24:34.644Z,97174.34
2022-10-23T22:27:03.641Z,97194.75
2022-10-23T22:29:33.651Z,97194.91
2022-10-23T22:32:02.228Z,97201.03
2022-10-23T22:34:51.755Z,97193.06
2022-10-23T22:37:20.393Z,97191.41
2022-10-23T22:39:54.001Z,97180.81
2022-10-23T22:42:22.501Z,97193.91
2022-10-23T22:44:52.455Z,97203.69
2022-10-23T22:47:21.079Z,97205.50
2022-10-23T22:49:49.726Z,97212.81
2022-10-23T22:52:18.218Z,97217.94
2022-10-23T22:54:46.725Z,97223.25
2022-10-23T22:57:15.333Z,97213.63
2022-10-23T22:59:44.748Z,97217.13
2022-10-23T23:02:14.565Z,97219.78
2022-10-23T23:04:43.341Z,97232.19
2022-10-23T23:07:13.663Z,97250.94
2022-10-23T23:09:43.993Z,97255.41
2022-10-23T23:12:14.310Z,97265.34
2022-10-23T23:14:43.488Z,97268.69
2022-10-23T23:17:12.403Z,97264.34
2022-10-23T23:19:42.207Z,97257.22
2022-10-23T23:22:10.812Z,97256.72
2022-10-23T23:24:40.147Z,97256.03
2022-10-23T23:27:08.647Z,97270.13
2022-10-23T23:29:37.358Z,97303.09
2022-10-23T23:32:06.959Z,97318.88
2022-10-23T23:34:35.657Z,97324.50
2022-10-23T23:37:05.924Z,97334.25
2022-10-23T23:39:34.443Z,97317.66
2022-10-23T23:42:02.909Z,97324.34
2022-10-23T23:44:31.390Z,97318.19
2022-10-23T23:46:59.806Z,97338.44
2022-10-23T23:49:28.254Z,97319.03
2022-10-23T23:51:56.691Z,97305.75
2022-10-23T23:54:26.468Z,97295.31
2022-10-23T23:56:58.973Z,97284.53
2022-10-23T23:59:27.429Z,97273.09
